Terminal Aerodrome Forecast
Issued by NWS Charleston, WV

Home | Current Version | Previous Version | Text Only | Print | Product List | Glossary On
Versions: 1 2 3 4 5 6 7 8 9 10 11 12 13 14 15 16 17 18 19 20 21 22 23 24 25 26
652
FTUS41 KRLX 061456 AAA
TAFEKN
TAF AMD
KEKN 061456Z 0615/0712 14009G15KT P6SM OVC050
      TEMPO 0615/0618 4SM -RA OVC025
     FM061800 13013G25KT 4SM -RA OVC035
      TEMPO 0618/0621 2SM -RA OVC025
     FM062100 15010KT 3SM -RA OVC035
     FM070200 21005KT 4SM BR OVC015
     FM070300 22004KT 3SM BR OVC008
     FM070600 28009G16KT 3SM BR BKN008=

USA.gov is the U.S. government's official web portal to all federal, state and local government web resources and services.